Time;durP1;ratioP1;P1;durP2;ratioP2;P2;SDS_P1;SDS_P2;PMS_P1;PMS_P2;Temp;Humidity;BMP_temperature;BMP_pressure;BME280_temperature;BME280_humidity;BME280_pressure;Samples;Min_cycle;Max_cycle;Signal;HPM_P1;HPM_P2
2021/05/04 00:01:27;;;;;;;78.03;70.10;;;15.70;93.10;;;;;;5090756;28;20028;-63
2021/05/04 00:03:55;;;;;;;83.43;74.68;;;15.70;93.30;;;;;;5087924;28;20027;-61
2021/05/04 00:06:22;;;;;;;83.50;73.85;;;15.70;93.00;;;;;;5090556;28;20023;-63
2021/05/04 00:08:50;;;;;;;86.60;77.13;;;15.80;92.90;;;;;;5089903;28;20101;-63
2021/05/04 00:11:17;;;;;;;81.32;72.72;;;15.90;92.90;;;;;;5089529;28;20032;-65
2021/05/04 00:13:45;;;;;;;83.53;71.95;;;15.90;93.50;;;;;;5089990;28;20056;-63
2021/05/04 00:16:12;;;;;;;79.18;69.95;;;15.90;92.80;;;;;;5088576;28;20085;-63
2021/05/04 00:18:39;;;;;;;79.68;70.75;;;16.00;92.50;;;;;;5089147;28;20008;-70
2021/05/04 00:21:07;;;;;;;81.82;73.10;;;16.00;92.80;;;;;;5089186;28;20016;-70
2021/05/04 00:23:34;;;;;;;84.22;72.85;;;16.00;93.10;;;;;;5087493;28;20020;-69
2021/05/04 00:26:01;;;;;;;77.65;68.88;;;16.10;92.70;;;;;;5071229;28;20377;-70
2021/05/04 00:28:29;;;;;;;81.65;73.05;;;16.10;92.70;;;;;;5089077;28;20024;-64
2021/05/04 00:30:56;;;;;;;82.35;73.70;;;16.20;93.00;;;;;;5090297;28;20031;-60
2021/05/04 00:33:24;;;;;;;77.40;68.95;;;16.20;92.70;;;;;;5089431;28;20048;-65
2021/05/04 00:35:51;;;;;;;78.85;70.72;;;16.20;92.30;;;;;;5089159;28;20449;-63
2021/05/04 00:38:19;;;;;;;81.53;71.45;;;16.20;92.70;;;;;;5089175;28;20013;-61
2021/05/04 00:40:46;;;;;;;82.13;73.18;;;16.20;92.40;;;;;;5088891;28;20028;-65
2021/05/04 00:43:13;;;;;;;75.35;67.18;;;16.20;92.70;;;;;;5088588;28;20030;-71
2021/05/04 00:45:41;;;;;;;77.05;69.22;;;16.20;92.20;;;;;;5089598;28;20031;-60
2021/05/04 00:48:08;;;;;;;84.38;75.15;;;16.20;92.30;;;;;;5089675;28;20028;-61
2021/05/04 00:50:36;;;;;;;85.65;76.30;;;16.20;93.00;;;;;;5089155;28;20028;-64
2021/05/04 00:53:04;;;;;;;85.18;76.38;;;16.20;93.20;;;;;;5089311;28;20020;-70
2021/05/04 00:55:33;;;;;;;87.63;78.47;;;16.20;93.40;;;;;;5088728;28;20030;-61
2021/05/04 00:58:02;;;;;;;79.72;71.55;;;16.20;93.40;;;;;;5070403;28;20036;-64
2021/05/04 01:00:30;;;;;;;79.35;71.05;;;16.20;92.90;;;;;;5088222;28;20035;-64
2021/05/04 01:02:58;;;;;;;80.75;72.78;;;16.20;92.90;;;;;;5089680;28;20032;-61
2021/05/04 01:05:26;;;;;;;79.32;70.85;;;16.20;92.70;;;;;;5088887;28;20020;-64
2021/05/04 01:07:53;;;;;;;82.05;72.65;;;16.30;93.20;;;;;;5089033;28;20442;-61
2021/05/04 01:10:21;;;;;;;81.90;73.65;;;16.30;93.00;;;;;;5088717;28;20038;-74
2021/05/04 01:12:48;;;;;;;88.47;75.90;;;16.40;93.50;;;;;;5088984;28;20016;-71
2021/05/04 01:15:16;;;;;;;86.55;76.88;;;16.30;93.60;;;;;;5088508;28;20066;-68
2021/05/04 01:17:43;;;;;;;86.30;76.93;;;16.40;93.80;;;;;;5088627;28;20020;-64
2021/05/04 01:20:12;;;;;;;85.78;74.15;;;16.30;93.70;;;;;;5086862;28;20035;-66
2021/05/04 01:22:40;;;;;;;78.80;70.60;;;16.40;93.30;;;;;;4532820;22;10002150;-66
2021/05/04 01:25:08;;;;;;;82.00;73.07;;;16.30;93.10;;;;;;5066779;28;20532;-64
2021/05/04 01:27:35;;;;;;;82.07;73.15;;;16.30;93.30;;;;;;5065465;28;20112;-63
2021/05/04 01:30:04;;;;;;;81.18;72.50;;;16.30;93.30;;;;;;5067529;28;20078;-65
2021/05/04 01:32:31;;;;;;;85.43;75.50;;;16.20;93.40;;;;;;5066095;28;20142;-73
2021/05/04 01:34:59;;;;;;;96.72;80.15;;;16.20;93.40;;;;;;5065109;28;20107;-64
2021/05/04 01:37:26;;;;;;;94.38;84.05;;;16.10;93.60;;;;;;5066366;28;20071;-65
2021/05/04 01:39:54;;;;;;;92.43;82.65;;;16.20;93.10;;;;;;5066530;28;20024;-65
2021/05/04 01:42:22;;;;;;;97.97;87.63;;;16.10;93.20;;;;;;5064382;28;20024;-64
2021/05/04 01:44:50;;;;;;;100.63;89.60;;;16.10;94.00;;;;;;5062913;28;20481;-74
2021/05/04 01:47:17;;;;;;;95.25;85.40;;;16.10;94.30;;;;;;5065777;28;20021;-73
2021/05/04 01:49:45;;;;;;;90.75;81.18;;;16.10;94.30;;;;;;5064069;28;20025;-64
2021/05/04 01:52:13;;;;;;;89.78;79.65;;;16.10;93.40;;;;;;5066074;28;20063;-64
2021/05/04 01:54:40;;;;;;;88.38;79.20;;;16.10;93.70;;;;;;5066145;28;20132;-64
2021/05/04 01:57:08;;;;;;;91.75;80.97;;;16.10;93.70;;;;;;5065391;28;20025;-64
2021/05/04 01:59:36;;;;;;;94.13;83.75;;;16.10;94.00;;;;;;5065672;28;20049;-74
2021/05/04 02:02:03;;;;;;;88.47;79.00;;;16.20;94.10;;;;;;5065688;28;20042;-70
2021/05/04 02:04:32;;;;;;;91.78;81.45;;;16.10;94.20;;;;;;5063552;28;20016;-61
2021/05/04 02:07:03;;;;;;;91.05;81.63;;;16.10;94.20;;;;;;5064702;28;20055;-61
2021/05/04 02:09:31;;;;;;;93.85;83.88;;;16.10;94.30;;;;;;5048203;28;20053;-64
2021/05/04 02:11:59;;;;;;;109.23;84.20;;;16.10;93.90;;;;;;4364689;28;9999934;-64
2021/05/04 02:14:27;;;;;;;95.32;84.45;;;16.10;93.90;;;;;;5056735;28;20029;-62
2021/05/04 02:16:55;;;;;;;95.00;85.03;;;16.10;94.30;;;;;;5062835;28;20428;-61
2021/05/04 02:19:22;;;;;;;93.30;83.35;;;16.20;94.60;;;;;;5063570;28;20024;-65
2021/05/04 02:21:49;;;;;;;93.10;83.10;;;16.20;94.40;;;;;;5063701;28;20028;-65
2021/05/04 02:24:17;;;;;;;92.50;80.28;;;16.20;94.20;;;;;;5062422;28;20029;-64
2021/05/04 02:26:44;;;;;;;88.32;79.10;;;16.30;94.10;;;;;;5062174;28;20492;-71
2021/05/04 02:29:11;;;;;;;91.45;81.55;;;16.40;93.80;;;;;;5061632;28;20403;-61
2021/05/04 02:31:38;;;;;;;88.47;79.28;;;16.40;94.10;;;;;;5059529;28;20466;-61
2021/05/04 02:34:06;;;;;;;89.55;80.53;;;16.40;94.20;;;;;;5043544;28;20025;-64
2021/05/04 02:36:33;;;;;;;92.00;82.32;;;16.40;94.30;;;;;;5042045;28;20020;-72
2021/05/04 02:39:00;;;;;;;85.38;76.50;;;16.40;94.20;;;;;;5043474;28;20017;-65
2021/05/04 02:41:27;;;;;;;83.47;74.55;;;16.40;93.80;;;;;;5042987;28;20023;-61
2021/05/04 02:43:55;;;;;;;82.10;73.25;;;16.40;93.60;;;;;;5042912;28;20029;-65
2021/05/04 02:46:22;;;;;;;74.97;67.47;;;16.40;94.10;;;;;;5043197;28;20025;-62
2021/05/04 02:48:49;;;;;;;77.80;69.95;;;16.30;94.00;;;;;;5042190;28;20061;-65
2021/05/04 02:51:19;;;;;;;71.47;63.40;;;16.40;94.00;;;;;;5042330;28;20057;-61
2021/05/04 02:53:46;;;;;;;71.95;64.22;;;16.40;93.50;;;;;;5042640;28;20060;-64
2021/05/04 02:56:13;;;;;;;76.13;68.18;;;16.50;93.60;;;;;;5035803;28;20050;-63
2021/05/04 02:58:41;;;;;;;73.47;65.95;;;16.50;94.10;;;;;;5042178;28;20028;-65
2021/05/04 03:01:08;;;;;;;70.90;63.67;;;16.60;94.30;;;;;;5042304;28;20135;-66
2021/05/04 03:03:36;;;;;;;69.00;61.95;;;16.60;93.90;;;;;;5043153;28;20080;-64
2021/05/04 03:06:06;;;;;;;59.28;52.72;;;16.70;93.90;;;;;;5042760;28;20067;-61
2021/05/04 03:08:35;;;;;;;50.10;44.63;;;16.90;93.70;;;;;;5042285;28;20025;-63
2021/05/04 03:11:02;;;;;;;50.58;43.70;;;16.90;92.50;;;;;;5042438;28;20480;-65
2021/05/04 03:13:32;;;;;;;44.45;39.55;;;17.00;91.90;;;;;;5025354;28;20481;-71
2021/05/04 03:15:59;;;;;;;47.20;42.10;;;17.00;92.10;;;;;;5042702;28;20033;-66
2021/05/04 03:18:27;;;;;;;47.70;42.53;;;17.00;91.90;;;;;;5041832;28;20024;-64
2021/05/04 03:20:55;;;;;;;51.60;46.22;;;16.90;92.20;;;;;;5042610;28;20033;-64
2021/05/04 03:23:23;;;;;;;55.03;47.08;;;16.90;92.80;;;;;;5038547;28;20037;-71
2021/05/04 03:25:51;;;;;;;51.30;45.90;;;16.90;93.20;;;;;;5042959;28;20110;-71
2021/05/04 03:28:19;;;;;;;49.13;43.88;;;16.90;93.20;;;;;;5042741;28;20532;-65
2021/05/04 03:30:47;;;;;;;53.22;42.35;;;16.90;93.40;;;;;;5042929;28;20035;-66
2021/05/04 03:33:14;;;;;;;70.90;42.83;;;16.80;93.00;;;;;;5042218;28;20025;-65
2021/05/04 03:35:42;;;;;;;42.58;37.95;;;16.80;93.00;;;;;;5041161;28;20561;-61
2021/05/04 03:38:09;;;;;;;40.63;36.45;;;16.80;92.60;;;;;;5042205;28;20017;-72
2021/05/04 03:40:37;;;;;;;41.45;36.95;;;16.80;92.00;;;;;;5042376;28;20025;-64
2021/05/04 03:43:04;;;;;;;44.40;38.30;;;16.90;92.00;;;;;;5041713;28;20494;-72
2021/05/04 03:45:32;;;;;;;47.58;35.47;;;16.90;92.20;;;;;;5041991;28;20553;-65
2021/05/04 03:48:00;;;;;;;52.05;39.80;;;16.90;92.30;;;;;;5036896;28;20036;-65
2021/05/04 03:50:29;;;;;;;47.85;41.17;;;16.90;92.60;;;;;;5041856;28;20100;-63
2021/05/04 03:52:59;;;;;;;43.38;38.83;;;16.90;92.90;;;;;;5042418;28;20009;-61
2021/05/04 03:55:26;;;;;;;47.92;38.63;;;16.80;92.90;;;;;;5042593;28;20021;-72
2021/05/04 03:57:53;;;;;;;44.97;39.47;;;16.80;92.40;;;;;;5041615;28;20025;-61
2021/05/04 04:00:22;;;;;;;53.53;47.83;;;16.80;92.90;;;;;;5040353;28;20406;-65
2021/05/04 04:02:51;;;;;;;59.67;53.55;;;16.70;92.90;;;;;;5041926;28;20036;-67
2021/05/04 04:05:19;;;;;;;61.85;55.42;;;16.60;93.10;;;;;;5045280;28;20417;-64
2021/05/04 04:07:46;;;;;;;63.00;55.50;;;16.60;93.30;;;;;;5044794;28;20036;-63
2021/05/04 04:10:14;;;;;;;60.88;54.33;;;16.40;93.40;;;;;;5043476;28;20080;-60
2021/05/04 04:12:41;;;;;;;57.53;51.58;;;16.20;93.60;;;;;;5045853;28;20036;-66
2021/05/04 04:15:10;;;;;;;58.88;51.97;;;16.20;93.20;;;;;;5041852;28;20515;-67
2021/05/04 04:17:37;;;;;;;61.13;54.47;;;16.10;93.60;;;;;;5048636;28;20100;-64
2021/05/04 04:20:06;;;;;;;57.00;50.80;;;16.00;94.10;;;;;;5048635;28;20078;-64
2021/05/04 04:22:35;;;;;;;56.30;50.50;;;16.00;94.30;;;;;;5049502;28;20068;-66
2021/05/04 04:25:04;;;;;;;53.50;48.05;;;15.90;94.50;;;;;;5048738;28;20492;-63
2021/05/04 04:27:32;;;;;;;50.63;45.22;;;15.90;94.50;;;;;;5049254;28;20111;-62
2021/05/04 04:29:59;;;;;;;52.17;46.35;;;15.80;94.20;;;;;;5048858;28;20082;-65
2021/05/04 04:32:26;;;;;;;51.83;46.45;;;15.90;94.10;;;;;;5049386;28;20142;-61
2021/05/04 04:34:54;;;;;;;50.58;45.33;;;15.90;94.20;;;;;;5048010;28;20017;-72
2021/05/04 04:37:22;;;;;;;50.92;45.72;;;15.90;94.30;;;;;;5046140;28;20025;-62
2021/05/04 04:39:49;;;;;;;50.75;45.33;;;15.80;94.30;;;;;;5049165;28;20355;-73
2021/05/04 04:42:17;;;;;;;49.35;44.25;;;15.80;94.30;;;;;;5048077;28;20013;-72
2021/05/04 04:44:44;;;;;;;46.47;41.40;;;15.80;94.40;;;;;;5048560;28;20025;-62
2021/05/04 04:47:12;;;;;;;44.45;39.92;;;15.80;94.60;;;;;;5049180;28;20032;-73
2021/05/04 04:49:39;;;;;;;44.63;40.13;;;15.80;94.20;;;;;;5042627;28;20028;-73
2021/05/04 04:52:07;;;;;;;45.58;40.80;;;15.80;94.20;;;;;;5048106;28;20032;-73
2021/05/04 04:54:34;;;;;;;41.42;36.97;;;15.80;94.60;;;;;;5048571;28;20072;-62
2021/05/04 04:57:03;;;;;;;42.17;37.47;;;15.80;94.30;;;;;;5048161;28;20476;-66
2021/05/04 04:59:30;;;;;;;42.85;38.60;;;15.80;94.20;;;;;;5047681;28;20104;-73
2021/05/04 05:01:57;;;;;;;46.03;41.08;;;15.80;94.30;;;;;;5048399;28;20032;-73
2021/05/04 05:04:25;;;;;;;49.00;43.67;;;15.80;94.40;;;;;;5047955;28;20025;-62
2021/05/04 05:06:53;;;;;;;54.33;48.40;;;15.80;94.50;;;;;;5047823;28;20160;-74
2021/05/04 05:09:20;;;;;;;52.97;46.63;;;15.80;95.20;;;;;;5047831;28;20037;-74
2021/05/04 05:11:48;;;;;;;54.17;47.67;;;15.90;95.20;;;;;;5047522;28;20029;-62
2021/05/04 05:14:15;;;;;;;51.63;46.38;;;15.90;94.80;;;;;;5029605;28;20590;-63
2021/05/04 05:16:42;;;;;;;56.72;50.80;;;16.00;94.50;;;;;;5047607;28;20025;-74
2021/05/04 05:19:09;;;;;;;54.50;48.97;;;16.10;94.30;;;;;;5048679;28;20036;-65
2021/05/04 05:21:37;;;;;;;53.00;47.63;;;16.00;94.20;;;;;;5046137;28;20071;-63
2021/05/04 05:24:06;;;;;;;50.65;45.45;;;16.00;94.40;;;;;;5045647;28;20051;-66
2021/05/04 05:26:33;;;;;;;50.10;45.00;;;16.00;94.70;;;;;;5028912;28;20405;-74
2021/05/04 05:29:02;;;;;;;45.35;40.47;;;16.00;94.50;;;;;;5047335;28;20064;-62
2021/05/04 05:31:31;;;;;;;45.22;40.55;;;16.00;93.90;;;;;;5047155;28;20025;-66
2021/05/04 05:33:59;;;;;;;45.40;40.28;;;16.00;94.20;;;;;;5045825;28;20044;-65
2021/05/04 05:36:26;;;;;;;44.08;38.97;;;16.00;93.80;;;;;;5044078;28;20129;-73
2021/05/04 05:38:53;;;;;;;43.85;39.15;;;16.00;94.00;;;;;;5047627;28;20028;-62
2021/05/04 05:41:22;;;;;;;44.00;38.97;;;16.00;94.10;;;;;;5047358;28;20013;-74
2021/05/04 05:43:49;;;;;;;45.22;40.47;;;15.90;94.00;;;;;;5047102;28;20114;-69
2021/05/04 05:46:17;;;;;;;48.95;43.65;;;15.90;94.40;;;;;;5044168;28;20568;-66
2021/05/04 05:48:44;;;;;;;46.35;41.90;;;15.80;94.00;;;;;;5046114;28;20032;-62
2021/05/04 05:51:11;;;;;;;41.17;36.92;;;15.80;94.10;;;;;;5045299;28;20576;-66
2021/05/04 05:53:39;;;;;;;42.88;38.28;;;15.80;93.90;;;;;;5047233;28;20055;-62
2021/05/04 05:56:07;;;;;;;41.67;37.42;;;15.80;93.80;;;;;;5047258;28;20020;-65
2021/05/04 05:58:35;;;;;;;36.40;32.45;;;15.80;94.20;;;;;;5046586;28;20547;-66
2021/05/04 06:01:02;;;;;;;35.42;31.73;;;15.80;94.00;;;;;;5046008;28;20338;-65
2021/05/04 06:03:30;;;;;;;33.25;29.77;;;15.80;93.60;;;;;;5046865;28;20568;-66
2021/05/04 06:05:57;;;;;;;32.70;29.27;;;15.80;93.60;;;;;;5044389;28;20045;-74
2021/05/04 06:08:25;;;;;;;35.97;31.88;;;15.80;93.90;;;;;;5046196;28;20108;-66
2021/05/04 06:10:53;;;;;;;35.70;31.95;;;15.70;93.90;;;;;;5046307;28;20024;-62
2021/05/04 06:13:21;;;;;;;35.92;31.77;;;15.70;94.20;;;;;;5046681;28;20039;-66
2021/05/04 06:15:49;;;;;;;36.53;32.63;;;15.60;94.40;;;;;;5045982;28;20040;-66
2021/05/04 06:18:16;;;;;;;34.40;30.77;;;15.60;94.20;;;;;;5042672;28;20108;-66
2021/05/04 06:20:44;;;;;;;37.35;32.75;;;15.60;94.00;;;;;;5041432;28;20080;-62
2021/05/04 06:23:11;;;;;;;37.80;33.90;;;15.60;94.20;;;;;;5047289;28;20124;-62
2021/05/04 06:25:39;;;;;;;36.33;32.55;;;15.50;94.60;;;;;;5042467;28;20025;-70
2021/05/04 06:28:09;;;;;;;32.28;29.05;;;15.50;94.70;;;;;;5045309;28;20036;-70
2021/05/04 06:30:37;;;;;;;32.30;28.80;;;15.50;94.30;;;;;;5037314;28;20403;-62
2021/05/04 06:33:15;;;;;;;32.90;27.83;;;15.60;94.50;;;;;;5045061;28;20028;-65
2021/05/04 06:35:48;;;;;;;33.28;29.80;;;15.50;94.10;;;;;;5038110;28;20033;-72
2021/05/04 06:38:18;;;;;;;29.13;26.27;;;15.40;94.30;;;;;;5044656;28;20360;-66
2021/05/04 06:40:48;;;;;;;28.63;25.55;;;15.40;94.50;;;;;;5044286;28;20033;-65
2021/05/04 06:43:16;;;;;;;28.85;25.73;;;15.40;93.70;;;;;;5041220;28;20154;-71
2021/05/04 06:45:44;;;;;;;26.98;24.15;;;15.40;93.90;;;;;;5043486;28;20029;-66
2021/05/04 06:48:14;;;;;;;31.98;25.67;;;15.40;94.00;;;;;;5041528;28;20477;-67
2021/05/04 06:50:41;;;;;;;26.42;23.60;;;15.40;94.40;;;;;;5024995;28;20032;-66
2021/05/04 06:53:09;;;;;;;29.05;25.30;;;15.40;94.60;;;;;;5042942;28;20021;-66
2021/05/04 06:55:36;;;;;;;29.80;26.73;;;15.30;94.20;;;;;;5043951;28;20450;-63
2021/05/04 06:58:04;;;;;;;29.33;26.23;;;15.30;94.70;;;;;;5041793;28;20091;-70
2021/05/04 07:00:31;;;;;;;28.15;25.42;;;15.20;94.80;;;;;;5034638;28;20070;-68
2021/05/04 07:03:01;;;;;;;28.80;25.83;;;15.20;94.90;;;;;;5043380;28;20040;-67
2021/05/04 07:05:28;;;;;;;29.33;26.10;;;15.20;94.90;;;;;;5026690;28;20044;-64
2021/05/04 07:07:56;;;;;;;27.80;24.90;;;15.20;95.00;;;;;;5043662;28;20025;-65
2021/05/04 07:10:24;;;;;;;28.88;25.88;;;15.20;94.70;;;;;;5045333;28;20420;-67
2021/05/04 07:12:51;;;;;;;30.20;25.58;;;15.20;94.50;;;;;;5044183;28;20021;-69
2021/05/04 07:15:18;;;;;;;29.50;26.42;;;15.10;95.20;;;;;;5042087;28;20024;-62
2021/05/04 07:17:46;;;;;;;29.30;26.17;;;15.10;95.00;;;;;;5044138;28;20025;-63
2021/05/04 07:20:19;;;;;;;31.23;27.92;;;15.10;94.80;;;;;;5024161;28;20682;-69
2021/05/04 07:22:51;;;;;;;29.95;26.65;;;15.00;95.20;;;;;;5044472;28;20040;-66
2021/05/04 07:25:19;;;;;;;32.35;28.05;;;15.00;95.00;;;;;;5039535;28;20033;-66
2021/05/04 07:27:47;;;;;;;30.83;27.35;;;15.00;95.10;;;;;;5040304;28;20028;-63
2021/05/04 07:30:16;;;;;;;30.58;27.30;;;15.00;95.30;;;;;;5041595;28;20385;-67
2021/05/04 07:32:43;;;;;;;32.28;28.50;;;14.90;95.30;;;;;;5042470;28;20083;-64
2021/05/04 07:35:11;;;;;;;31.98;27.05;;;14.90;95.40;;;;;;5039411;28;20469;-65
2021/05/04 07:37:39;;;;;;;28.80;25.77;;;14.90;95.50;;;;;;5039502;28;20044;-67
2021/05/04 07:40:07;;;;;;;26.55;23.90;;;14.90;95.30;;;;;;5035383;28;20030;-67
2021/05/04 07:42:34;;;;;;;25.63;23.05;;;14.90;95.00;;;;;;5038927;28;20029;-66
2021/05/04 07:45:02;;;;;;;27.63;24.73;;;14.90;95.10;;;;;;5042233;28;20025;-66
2021/05/04 07:47:29;;;;;;;25.63;23.02;;;14.90;94.90;;;;;;5040114;28;20029;-70
2021/05/04 07:49:57;;;;;;;27.85;23.67;;;14.90;95.00;;;;;;5043661;28;20108;-66
2021/05/04 07:52:24;;;;;;;28.05;25.05;;;14.80;95.00;;;;;;5055401;28;20032;-64
2021/05/04 07:54:53;;;;;;;27.52;23.17;;;14.80;95.20;;;;;;5043452;28;20036;-71
2021/05/04 07:57:21;;;;;;;29.70;26.55;;;14.80;95.20;;;;;;5026560;28;20369;-70
2021/05/04 07:59:51;;;;;;;26.05;23.35;;;14.80;95.40;;;;;;5046650;28;20075;-68
2021/05/04 08:02:20;;;;;;;29.52;25.38;;;14.70;95.40;;;;;;5040907;28;20025;-66
2021/05/04 08:04:47;;;;;;;30.35;27.15;;;14.70;95.50;;;;;;5040974;28;20060;-75
2021/05/04 08:07:14;;;;;;;25.80;23.02;;;14.70;95.40;;;;;;5044094;28;20323;-69
2021/05/04 08:09:42;;;;;;;25.80;23.10;;;14.70;95.40;;;;;;5040642;28;20083;-69
2021/05/04 08:12:09;;;;;;;25.92;23.17;;;14.70;95.30;;;;;;5041937;28;20029;-67
2021/05/04 08:14:37;;;;;;;24.88;22.38;;;14.60;95.40;;;;;;5039242;28;20025;-64
2021/05/04 08:17:10;;;;;;;22.80;20.42;;;14.60;95.60;;;;;;5041380;28;20500;-67
2021/05/04 08:19:37;;;;;;;24.73;21.38;;;14.60;95.60;;;;;;5027612;28;20220;-68
2021/05/04 08:22:05;;;;;;;26.27;22.05;;;14.60;95.50;;;;;;5045851;28;20045;-72
2021/05/04 08:24:32;;;;;;;26.25;21.98;;;14.60;95.80;;;;;;5045984;28;20021;-69
2021/05/04 08:27:00;;;;;;;24.42;21.95;;;14.60;95.80;;;;;;5043242;28;20267;-63
2021/05/04 08:29:27;;;;;;;26.58;20.48;;;14.60;95.80;;;;;;5042441;28;20056;-66
2021/05/04 08:31:54;;;;;;;24.02;20.77;;;14.60;95.60;;;;;;5042959;28;20117;-75
2021/05/04 08:34:22;;;;;;;25.27;22.77;;;14.60;95.70;;;;;;5044054;28;20025;-67
2021/05/04 08:36:49;;;;;;;24.40;21.80;;;14.60;95.80;;;;;;5042990;28;20029;-71
2021/05/04 08:39:17;;;;;;;24.02;21.48;;;14.60;95.80;;;;;;5040509;28;20426;-69
2021/05/04 08:41:47;;;;;;;29.95;22.35;;;14.60;95.70;;;;;;5037998;28;20493;-65
2021/05/04 08:44:19;;;;;;;27.75;23.42;;;14.60;95.80;;;;;;5041449;28;20028;-65
2021/05/04 08:46:51;;;;;;;24.33;21.63;;;14.60;95.80;;;;;;5041837;28;20068;-69
2021/05/04 08:49:20;;;;;;;32.72;23.05;;;14.50;95.60;;;;;;5041647;28;20544;-66
2021/05/04 08:51:50;;;;;;;26.65;21.98;;;14.60;95.60;;;;;;5043323;28;20020;-69
2021/05/04 08:54:18;;;;;;;27.77;23.00;;;14.60;95.80;;;;;;5043653;28;20021;-66
2021/05/04 08:56:46;;;;;;;27.13;22.25;;;14.60;95.70;;;;;;5041410;28;20037;-72
2021/05/04 08:59:14;;;;;;;26.38;22.73;;;14.50;95.70;;;;;;5017292;28;20045;-65
2021/05/04 09:01:43;;;;;;;26.73;23.85;;;14.50;95.80;;;;;;5035899;28;20413;-66
2021/05/04 09:04:42;;;;;;;26.95;24.13;;;14.50;96.00;;;;;;5022710;28;20091;-70
2021/05/04 09:07:28;;;;;;;29.65;24.13;;;14.60;96.00;;;;;;5030833;28;20029;-69
2021/05/04 09:10:09;;;;;;;26.35;23.55;;;14.60;95.80;;;;;;5029155;28;20453;-69
2021/05/04 09:13:22;;;;;;;26.48;23.20;;;14.70;95.60;;;;;;5041794;28;20025;-71
2021/05/04 09:15:56;;;;;;;26.92;22.90;;;14.70;95.50;;;;;;5032405;28;20137;-67
2021/05/04 09:21:09;;;;;;;28.55;23.90;;;14.60;96.00;;;;;;5042345;28;20150;-72
2021/05/04 09:23:40;;;;;;;27.80;24.88;;;14.60;96.00;;;;;;5043501;28;20053;-67
2021/05/04 09:26:21;;;;;;;27.35;24.27;;;14.50;96.10;;;;;;5022900;28;20114;-67
2021/05/04 09:28:53;;;;;;;27.50;24.60;;;14.60;95.90;;;;;;5019967;28;20138;-66
2021/05/04 09:31:29;;;;;;;29.10;25.97;;;14.60;95.80;;;;;;5039508;28;20565;-71
2021/05/04 09:34:07;;;;;;;29.65;25.55;;;14.60;96.00;;;;;;5036621;28;20802;-68
2021/05/04 09:36:47;;;;;;;28.80;25.75;;;14.70;95.70;;;;;;5019126;28;20047;-70
2021/05/04 09:39:32;;;;;;;29.13;25.88;;;14.70;95.70;;;;;;5036897;28;20028;-69
2021/05/04 09:42:01;;;;;;;30.65;27.35;;;14.70;95.50;;;;;;5012917;28;20087;-69
2021/05/04 09:44:45;;;;;;;31.35;26.15;;;14.60;95.80;;;;;;5036413;28;20029;-69
2021/05/04 09:47:13;;;;;;;30.60;26.08;;;14.60;95.90;;;;;;5036762;28;20071;-75
2021/05/04 09:49:41;;;;;;;28.77;25.75;;;14.60;96.00;;;;;;5039943;28;20520;-68
2021/05/04 09:55:18;;;;;;;28.77;25.70;;;14.60;96.20;;;;;;5040561;28;20366;-74
2021/05/04 09:57:49;;;;;;;30.20;27.10;;;14.70;96.10;;;;;;5036282;28;20033;-68
2021/05/04 10:00:21;;;;;;;30.80;27.60;;;14.70;95.90;;;;;;5015661;28;20044;-70
2021/05/04 10:02:50;;;;;;;31.52;28.23;;;14.70;96.10;;;;;;5017572;28;20029;-70
2021/05/04 10:05:19;;;;;;;32.83;27.40;;;14.70;96.10;;;;;;5038880;28;20032;-67
2021/05/04 10:07:48;;;;;;;29.77;26.48;;;14.60;96.00;;;;;;5015265;28;20249;-69
2021/05/04 10:10:17;;;;;;;29.63;26.52;;;14.60;96.10;;;;;;5039163;28;20021;-67
2021/05/04 10:12:46;;;;;;;30.83;27.52;;;14.60;96.10;;;;;;5029903;28;20661;-70
2021/05/04 10:15:15;;;;;;;29.92;26.65;;;14.60;96.10;;;;;;5022149;28;20025;-66
2021/05/04 10:17:43;;;;;;;31.27;27.98;;;14.60;96.20;;;;;;5039311;28;20424;-70
2021/05/04 10:20:15;;;;;;;31.30;28.02;;;14.60;96.30;;;;;;5040973;28;20016;-72
2021/05/04 10:22:42;;;;;;;35.58;31.92;;;14.50;96.40;;;;;;5035050;28;20049;-69
2021/05/04 10:25:13;;;;;;;33.28;28.95;;;14.60;96.50;;;;;;5022852;28;20029;-71
2021/05/04 10:27:43;;;;;;;35.75;31.50;;;14.60;96.60;;;;;;5039915;28;20112;-68
2021/05/04 10:30:11;;;;;;;33.85;30.33;;;14.60;96.50;;;;;;5038261;28;20493;-73
2021/05/04 10:33:25;;;;;;;35.03;28.85;;;14.60;96.50;;;;;;5038530;28;20028;-72
2021/05/04 10:35:54;;;;;;;31.10;27.77;;;14.70;96.50;;;;;;5002834;28;20080;-66
2021/05/04 10:38:21;;;;;;;32.60;29.17;;;14.60;96.50;;;;;;5037258;28;20025;-66
2021/05/04 10:41:00;;;;;;;33.42;30.13;;;14.70;96.40;;;;;;5036685;28;20546;-72
2021/05/04 10:43:27;;;;;;;33.78;30.27;;;14.60;96.40;;;;;;5036362;28;20021;-66
2021/05/04 10:45:56;;;;;;;34.92;31.17;;;14.60;96.40;;;;;;5040548;28;20405;-72
2021/05/04 10:48:40;;;;;;;33.75;30.20;;;14.60;96.50;;;;;;5038598;28;20027;-65
2021/05/04 10:51:14;;;;;;;36.40;32.28;;;14.60;96.60;;;;;;5006810;28;20251;-72
2021/05/04 10:53:53;;;;;;;36.65;32.92;;;14.60;96.50;;;;;;5015149;28;20572;-67
2021/05/04 10:56:38;;;;;;;36.13;32.28;;;14.60;96.40;;;;;;5037751;28;20528;-72
2021/05/04 10:59:11;;;;;;;37.63;32.08;;;14.60;96.40;;;;;;5032062;28;20476;-73
2021/05/04 11:01:39;;;;;;;39.15;33.92;;;14.60;96.40;;;;;;5033960;28;20029;-73
2021/05/04 11:04:07;;;;;;;39.40;34.38;;;14.70;96.40;;;;;;5033016;28;20079;-72
2021/05/04 11:06:36;;;;;;;36.40;32.72;;;14.70;96.30;;;;;;5039272;28;20439;-69
2021/05/04 11:09:06;;;;;;;39.67;35.28;;;14.80;96.10;;;;;;5038363;28;20658;-76
2021/05/04 11:11:37;;;;;;;37.53;33.03;;;14.70;96.10;;;;;;5042268;28;20758;-73
2021/05/04 11:14:08;;;;;;;37.08;32.60;;;14.70;96.00;;;;;;5043008;28;20017;-69
2021/05/04 11:16:37;;;;;;;39.22;33.72;;;14.70;96.10;;;;;;5035891;28;20032;-70
2021/05/04 11:19:08;;;;;;;38.28;34.28;;;14.80;96.20;;;;;;5040476;28;20025;-74
2021/05/04 11:21:50;;;;;;;38.90;34.70;;;14.80;96.10;;;;;;5041975;28;20029;-74
2021/05/04 11:24:21;;;;;;;36.15;32.65;;;14.80;96.20;;;;;;5043067;28;20887;-69
2021/05/04 11:26:52;;;;;;;37.00;33.10;;;14.70;96.30;;;;;;5041453;28;20036;-69
2021/05/04 11:29:21;;;;;;;39.28;33.97;;;14.70;96.30;;;;;;5039737;28;20025;-72
2021/05/04 11:31:50;;;;;;;42.63;38.33;;;14.70;96.50;;;;;;4689030;28;10000155;-76
2021/05/04 11:34:42;;;;;;;39.60;35.40;;;14.70;96.20;;;;;;5039895;28;20427;-75
2021/05/04 11:37:12;;;;;;;38.90;34.83;;;14.70;96.30;;;;;;5038990;28;20401;-70
2021/05/04 11:39:55;;;;;;;37.13;33.42;;;14.70;96.20;;;;;;5037754;28;20033;-69
2021/05/04 11:42:39;;;;;;;39.60;34.17;;;14.70;96.10;;;;;;5036335;28;20406;-70
2021/05/04 11:45:15;;;;;;;38.92;32.55;;;14.70;96.00;;;;;;5036843;28;20029;-75
2021/05/04 11:47:46;;;;;;;37.47;33.58;;;14.70;95.80;;;;;;5038893;28;20434;-73
2021/05/04 11:50:21;;;;;;;35.55;32.00;;;14.70;96.00;;;;;;5031512;28;20444;-75
2021/05/04 11:52:58;;;;;;;35.95;31.98;;;14.70;96.10;;;;;;5036732;28;20020;-75
2021/05/04 11:55:27;;;;;;;34.85;31.40;;;14.60;96.00;;;;;;5034711;28;20035;-70
2021/05/04 11:58:00;;;;;;;35.55;31.77;;;14.60;96.00;;;;;;5040430;28;20723;-69
2021/05/04 12:00:29;;;;;;;36.88;32.75;;;14.60;95.80;;;;;;5019385;28;20032;-75
2021/05/04 12:03:04;;;;;;;33.30;29.60;;;14.60;96.10;;;;;;5038783;28;20036;-76
2021/05/04 12:05:32;;;;;;;33.92;30.50;;;14.60;96.10;;;;;;5034506;28;20091;-75
2021/05/04 12:08:01;;;;;;;31.55;28.15;;;14.60;95.80;;;;;;5040156;28;20060;-70
2021/05/04 12:10:36;;;;;;;36.42;29.70;;;14.60;95.90;;;;;;5039986;28;20087;-70
2021/05/04 12:13:06;;;;;;;35.53;30.27;;;14.60;96.10;;;;;;5036166;28;20483;-68
2021/05/04 12:15:37;;;;;;;32.60;29.40;;;14.60;96.10;;;;;;5032891;28;20155;-68
2021/05/04 12:18:11;;;;;;;36.00;31.15;;;14.60;96.00;;;;;;5033522;28;20021;-70
2021/05/04 12:20:45;;;;;;;34.22;30.23;;;14.60;96.20;;;;;;5041017;28;20114;-69
2021/05/04 12:23:14;;;;;;;32.65;29.45;;;14.60;96.10;;;;;;5037440;28;20045;-70
2021/05/04 12:26:08;;;;;;;36.05;31.63;;;14.50;96.30;;;;;;5043595;28;20044;-68
2021/05/04 12:28:41;;;;;;;35.42;30.48;;;14.60;96.40;;;;;;5030284;28;20370;-70
2021/05/04 12:31:12;;;;;;;34.80;31.27;;;14.50;96.30;;;;;;5037017;28;20025;-68
2021/05/04 12:33:41;;;;;;;36.13;32.47;;;14.60;96.10;;;;;;5042630;28;20497;-68
2021/05/04 12:36:20;;;;;;;36.65;32.97;;;14.50;96.10;;;;;;5044923;28;20393;-70
2021/05/04 12:38:54;;;;;;;39.15;35.20;;;14.50;96.30;;;;;;5046500;28;20067;-70
2021/05/04 12:41:24;;;;;;;44.40;39.72;;;14.50;96.70;;;;;;5045737;28;20025;-69
2021/05/04 12:44:10;;;;;;;41.22;36.90;;;14.50;96.60;;;;;;5045998;28;20815;-69